sensor_id;sensor_type;location;lat;lon;timestamp;temperature;humidity
12771;DHT22;6449;47.666;9.160;2023-07-02T00:00:02;17.90;99.90
12771;DHT22;6449;47.666;9.160;2023-07-02T00:04:58;17.90;99.90
12771;DHT22;6449;47.666;9.160;2023-07-02T00:09:52;18.00;99.90
12771;DHT22;6449;47.666;9.160;2023-07-02T00:14:45;17.90;99.90
12771;DHT22;6449;47.666;9.160;2023-07-02T00:19:38;17.80;99.90
12771;DHT22;6449;47.666;9.160;2023-07-02T00:24:35;17.50;99.90
12771;DHT22;6449;47.666;9.160;2023-07-02T00:29:28;17.50;99.90
12771;DHT22;6449;47.666;9.160;2023-07-02T00:34:22;17.60;99.90
12771;DHT22;6449;47.666;9.160;2023-07-02T00:39:15;17.50;99.90
12771;DHT22;6449;47.666;9.160;2023-07-02T00:44:11;17.40;99.90
12771;DHT22;6449;47.666;9.160;2023-07-02T00:49:05;17.40;99.90
12771;DHT22;6449;47.666;9.160;2023-07-02T00:53:58;17.30;99.90
12771;DHT22;6449;47.666;9.160;2023-07-02T00:58:54;17.40;99.90
12771;DHT22;6449;47.666;9.160;2023-07-02T01:03:53;17.40;99.90
12771;DHT22;6449;47.666;9.160;2023-07-02T01:08:47;17.50;99.90
12771;DHT22;6449;47.666;9.160;2023-07-02T01:13:41;17.50;99.90
12771;DHT22;6449;47.666;9.160;2023-07-02T01:18:35;17.50;99.90
12771;DHT22;6449;47.666;9.160;2023-07-02T01:23:31;17.60;99.90
12771;DHT22;6449;47.666;9.160;2023-07-02T01:28:27;17.50;99.90
12771;DHT22;6449;47.666;9.160;2023-07-02T01:33:27;17.50;99.90
12771;DHT22;6449;47.666;9.160;2023-07-02T01:38:20;17.50;99.90
12771;DHT22;6449;47.666;9.160;2023-07-02T01:43:15;17.50;99.90
12771;DHT22;6449;47.666;9.160;2023-07-02T01:48:08;17.50;99.90
12771;DHT22;6449;47.666;9.160;2023-07-02T01:53:02;17.60;99.90
12771;DHT22;6449;47.666;9.160;2023-07-02T01:57:55;17.50;99.90
12771;DHT22;6449;47.666;9.160;2023-07-02T02:02:50;17.50;99.90
12771;DHT22;6449;47.666;9.160;2023-07-02T02:07:43;17.50;99.90
12771;DHT22;6449;47.666;9.160;2023-07-02T02:12:37;17.50;99.90
12771;DHT22;6449;47.666;9.160;2023-07-02T02:17:30;17.50;99.90
12771;DHT22;6449;47.666;9.160;2023-07-02T02:22:25;17.50;99.90
12771;DHT22;6449;47.666;9.160;2023-07-02T02:27:18;17.40;99.90
12771;DHT22;6449;47.666;9.160;2023-07-02T02:32:11;17.40;99.90
12771;DHT22;6449;47.666;9.160;2023-07-02T02:37:06;17.30;99.90
12771;DHT22;6449;47.666;9.160;2023-07-02T02:42:01;17.20;99.90
12771;DHT22;6449;47.666;9.160;2023-07-02T02:46:54;17.40;99.90
12771;DHT22;6449;47.666;9.160;2023-07-02T02:51:48;17.50;99.90
12771;DHT22;6449;47.666;9.160;2023-07-02T02:56:42;17.50;99.90
12771;DHT22;6449;47.666;9.160;2023-07-02T03:01:37;17.40;99.90
12771;DHT22;6449;47.666;9.160;2023-07-02T03:06:30;17.50;99.90
12771;DHT22;6449;47.666;9.160;2023-07-02T03:11:23;17.50;99.90
12771;DHT22;6449;47.666;9.160;2023-07-02T03:16:17;17.40;99.90
12771;DHT22;6449;47.666;9.160;2023-07-02T03:21:14;17.40;99.90
12771;DHT22;6449;47.666;9.160;2023-07-02T03:26:08;17.40;99.90
12771;DHT22;6449;47.666;9.160;2023-07-02T03:31:01;17.30;99.90
12771;DHT22;6449;47.666;9.160;2023-07-02T03:35:56;17.40;99.90
12771;DHT22;6449;47.666;9.160;2023-07-02T03:40:51;17.40;99.90
12771;DHT22;6449;47.666;9.160;2023-07-02T03:45:44;17.40;99.90
12771;DHT22;6449;47.666;9.160;2023-07-02T03:50:38;17.30;99.90
12771;DHT22;6449;47.666;9.160;2023-07-02T03:55:31;17.40;99.90
12771;DHT22;6449;47.666;9.160;2023-07-02T04:00:26;17.40;99.90
12771;DHT22;6449;47.666;9.160;2023-07-02T04:05:19;17.40;99.90
12771;DHT22;6449;47.666;9.160;2023-07-02T04:10:13;17.40;99.90
12771;DHT22;6449;47.666;9.160;2023-07-02T04:15:07;17.40;99.90
12771;DHT22;6449;47.666;9.160;2023-07-02T04:20:03;17.40;99.90
12771;DHT22;6449;47.666;9.160;2023-07-02T04:24:59;17.40;99.90
12771;DHT22;6449;47.666;9.160;2023-07-02T04:29:58;17.30;99.90
12771;DHT22;6449;47.666;9.160;2023-07-02T04:34:52;17.20;99.90
12771;DHT22;6449;47.666;9.160;2023-07-02T04:39:46;17.30;99.90
12771;DHT22;6449;47.666;9.160;2023-07-02T04:44:40;17.30;99.90
12771;DHT22;6449;47.666;9.160;2023-07-02T04:49:35;17.40;99.90
12771;DHT22;6449;47.666;9.160;2023-07-02T04:54:28;17.30;99.90
12771;DHT22;6449;47.666;9.160;2023-07-02T04:59:23;17.30;99.90
12771;DHT22;6449;47.666;9.160;2023-07-02T05:04:16;17.30;99.90
12771;DHT22;6449;47.666;9.160;2023-07-02T05:09:10;17.30;99.90
12771;DHT22;6449;47.666;9.160;2023-07-02T05:14:03;17.30;99.90
12771;DHT22;6449;47.666;9.160;2023-07-02T05:18:58;17.20;99.90
12771;DHT22;6449;47.666;9.160;2023-07-02T05:23:51;17.30;99.90
12771;DHT22;6449;47.666;9.160;2023-07-02T05:28:45;17.30;99.90
12771;DHT22;6449;47.666;9.160;2023-07-02T05:33:38;17.30;99.90
12771;DHT22;6449;47.666;9.160;2023-07-02T05:38:33;17.40;99.90
12771;DHT22;6449;47.666;9.160;2023-07-02T05:43:27;17.30;99.90
12771;DHT22;6449;47.666;9.160;2023-07-02T05:48:20;17.30;99.90
12771;DHT22;6449;47.666;9.160;2023-07-02T05:53:13;17.30;99.90
12771;DHT22;6449;47.666;9.160;2023-07-02T05:58:08;17.30;99.90
12771;DHT22;6449;47.666;9.160;2023-07-02T06:03:01;17.40;99.90
12771;DHT22;6449;47.666;9.160;2023-07-02T06:07:55;17.40;99.90
12771;DHT22;6449;47.666;9.160;2023-07-02T06:12:48;17.40;99.90
12771;DHT22;6449;47.666;9.160;2023-07-02T06:17:43;17.40;99.90
12771;DHT22;6449;47.666;9.160;2023-07-02T06:22:36;17.40;99.90
12771;DHT22;6449;47.666;9.160;2023-07-02T06:27:30;17.60;99.90
12771;DHT22;6449;47.666;9.160;2023-07-02T06:32:23;17.70;99.90
12771;DHT22;6449;47.666;9.160;2023-07-02T06:37:18;17.70;99.90
12771;DHT22;6449;47.666;9.160;2023-07-02T06:42:11;17.80;99.90
12771;DHT22;6449;47.666;9.160;2023-07-02T06:47:05;17.90;99.90
12771;DHT22;6449;47.666;9.160;2023-07-02T06:51:58;17.90;99.90
12771;DHT22;6449;47.666;9.160;2023-07-02T06:56:53;17.90;99.90
12771;DHT22;6449;47.666;9.160;2023-07-02T07:01:47;17.80;99.90
12771;DHT22;6449;47.666;9.160;2023-07-02T07:06:41;17.90;99.90
12771;DHT22;6449;47.666;9.160;2023-07-02T07:11:34;17.80;99.90
12771;DHT22;6449;47.666;9.160;2023-07-02T07:16:29;17.90;99.90
12771;DHT22;6449;47.666;9.160;2023-07-02T07:21:22;17.90;99.90
12771;DHT22;6449;47.666;9.160;2023-07-02T07:26:15;17.80;99.90
12771;DHT22;6449;47.666;9.160;2023-07-02T07:31:09;17.80;99.90
12771;DHT22;6449;47.666;9.160;2023-07-02T07:36:04;17.80;99.90
12771;DHT22;6449;47.666;9.160;2023-07-02T07:40:57;17.60;99.90
12771;DHT22;6449;47.666;9.160;2023-07-02T07:45:50;17.50;99.90
12771;DHT22;6449;47.666;9.160;2023-07-02T07:50:44;17.50;99.90
12771;DHT22;6449;47.666;9.160;2023-07-02T07:55:39;17.50;99.90
12771;DHT22;6449;47.666;9.160;2023-07-02T08:00:32;17.50;99.90
12771;DHT22;6449;47.666;9.160;2023-07-02T08:05:26;17.50;99.90
12771;DHT22;6449;47.666;9.160;2023-07-02T08:10:19;17.60;99.90
12771;DHT22;6449;47.666;9.160;2023-07-02T08:15:14;17.80;99.90
12771;DHT22;6449;47.666;9.160;2023-07-02T08:20:09;17.90;99.90
12771;DHT22;6449;47.666;9.160;2023-07-02T08:25:04;18.00;99.90
12771;DHT22;6449;47.666;9.160;2023-07-02T08:29:57;18.30;99.90
12771;DHT22;6449;47.666;9.160;2023-07-02T08:34:52;18.60;99.90
12771;DHT22;6449;47.666;9.160;2023-07-02T08:39:45;18.80;99.90
12771;DHT22;6449;47.666;9.160;2023-07-02T08:44:39;18.80;99.90
12771;DHT22;6449;47.666;9.160;2023-07-02T08:49:34;18.80;99.90
12771;DHT22;6449;47.666;9.160;2023-07-02T08:54:29;18.60;99.90
12771;DHT22;6449;47.666;9.160;2023-07-02T08:59:22;18.60;99.90
12771;DHT22;6449;47.666;9.160;2023-07-02T09:04:17;18.40;99.90
12771;DHT22;6449;47.666;9.160;2023-07-02T09:09:12;18.40;99.90
12771;DHT22;6449;47.666;9.160;2023-07-02T09:14:07;18.50;99.90
12771;DHT22;6449;47.666;9.160;2023-07-02T09:19:02;18.60;99.90
12771;DHT22;6449;47.666;9.160;2023-07-02T09:23:57;18.60;99.90
12771;DHT22;6449;47.666;9.160;2023-07-02T09:28:50;19.00;99.90
12771;DHT22;6449;47.666;9.160;2023-07-02T09:34:02;19.20;99.90
12771;DHT22;6449;47.666;9.160;2023-07-02T09:38:56;19.40;99.90
12771;DHT22;6449;47.666;9.160;2023-07-02T09:43:49;20.20;99.90
12771;DHT22;6449;47.666;9.160;2023-07-02T09:48:43;20.90;99.90
12771;DHT22;6449;47.666;9.160;2023-07-02T09:53:38;21.10;99.90
12771;DHT22;6449;47.666;9.160;2023-07-02T09:58:32;21.10;99.90
12771;DHT22;6449;47.666;9.160;2023-07-02T10:03:29;21.00;99.90
12771;DHT22;6449;47.666;9.160;2023-07-02T10:08:23;20.50;99.90
12771;DHT22;6449;47.666;9.160;2023-07-02T10:13:29;20.20;99.90
12771;DHT22;6449;47.666;9.160;2023-07-02T10:18:26;19.90;99.90
12771;DHT22;6449;47.666;9.160;2023-07-02T10:23:20;19.70;99.90
12771;DHT22;6449;47.666;9.160;2023-07-02T10:28:25;19.80;99.90
12771;DHT22;6449;47.666;9.160;2023-07-02T10:33:20;19.90;99.90
12771;DHT22;6449;47.666;9.160;2023-07-02T10:38:18;19.90;99.90
12771;DHT22;6449;47.666;9.160;2023-07-02T10:43:13;20.00;99.90
12771;DHT22;6449;47.666;9.160;2023-07-02T10:48:09;20.00;99.90
12771;DHT22;6449;47.666;9.160;2023-07-02T10:53:04;20.10;99.90
12771;DHT22;6449;47.666;9.160;2023-07-02T10:58:04;20.20;99.90
12771;DHT22;6449;47.666;9.160;2023-07-02T11:02:59;20.40;99.90
12771;DHT22;6449;47.666;9.160;2023-07-02T11:07:53;20.60;99.90
12771;DHT22;6449;47.666;9.160;2023-07-02T11:12:50;20.90;99.90
12771;DHT22;6449;47.666;9.160;2023-07-02T11:17:44;21.30;99.90
12771;DHT22;6449;47.666;9.160;2023-07-02T11:22:38;21.70;99.90
12771;DHT22;6449;47.666;9.160;2023-07-02T11:27:32;21.60;99.90
12771;DHT22;6449;47.666;9.160;2023-07-02T11:32:27;21.70;99.90
12771;DHT22;6449;47.666;9.160;2023-07-02T11:37:21;22.20;99.90
12771;DHT22;6449;47.666;9.160;2023-07-02T11:42:14;22.40;99.90
12771;DHT22;6449;47.666;9.160;2023-07-02T11:47:07;22.30;99.90
12771;DHT22;6449;47.666;9.160;2023-07-02T11:52:02;22.70;99.90
12771;DHT22;6449;47.666;9.160;2023-07-02T11:56:56;22.60;99.90
12771;DHT22;6449;47.666;9.160;2023-07-02T12:01:50;22.10;99.90
12771;DHT22;6449;47.666;9.160;2023-07-02T12:06:43;22.10;99.90
12771;DHT22;6449;47.666;9.160;2023-07-02T12:11:38;22.30;99.90
12771;DHT22;6449;47.666;9.160;2023-07-02T12:16:31;22.40;99.90
12771;DHT22;6449;47.666;9.160;2023-07-02T12:21:25;22.40;99.90
12771;DHT22;6449;47.666;9.160;2023-07-02T12:26:18;22.20;99.90
12771;DHT22;6449;47.666;9.160;2023-07-02T12:31:13;22.00;99.90
12771;DHT22;6449;47.666;9.160;2023-07-02T12:36:06;21.70;99.90
12771;DHT22;6449;47.666;9.160;2023-07-02T12:41:00;21.50;99.90
12771;DHT22;6449;47.666;9.160;2023-07-02T12:51:04;21.50;99.90
12771;DHT22;6449;47.666;9.160;2023-07-02T12:55:57;21.70;99.90
12771;DHT22;6449;47.666;9.160;2023-07-02T13:00:50;21.90;99.90
12771;DHT22;6449;47.666;9.160;2023-07-02T13:05:44;21.80;99.90
12771;DHT22;6449;47.666;9.160;2023-07-02T13:10:39;21.90;99.90
12771;DHT22;6449;47.666;9.160;2023-07-02T13:15:48;22.10;99.90
12771;DHT22;6449;47.666;9.160;2023-07-02T13:21:01;22.30;99.90
12771;DHT22;6449;47.666;9.160;2023-07-02T13:25:56;22.30;99.90
12771;DHT22;6449;47.666;9.160;2023-07-02T13:30:49;22.40;99.90
12771;DHT22;6449;47.666;9.160;2023-07-02T13:35:42;22.50;99.90
12771;DHT22;6449;47.666;9.160;2023-07-02T13:40:40;22.50;99.90
12771;DHT22;6449;47.666;9.160;2023-07-02T13:45:35;22.50;99.90
12771;DHT22;6449;47.666;9.160;2023-07-02T13:50:28;22.60;99.90
12771;DHT22;6449;47.666;9.160;2023-07-02T13:55:21;22.60;99.90
12771;DHT22;6449;47.666;9.160;2023-07-02T14:00:21;22.40;99.90
12771;DHT22;6449;47.666;9.160;2023-07-02T14:05:16;22.60;99.90
12771;DHT22;6449;47.666;9.160;2023-07-02T14:10:28;22.60;99.90
12771;DHT22;6449;47.666;9.160;2023-07-02T14:15:24;22.60;99.90
12771;DHT22;6449;47.666;9.160;2023-07-02T14:20:19;22.70;99.90
12771;DHT22;6449;47.666;9.160;2023-07-02T14:25:13;22.80;99.90
12771;DHT22;6449;47.666;9.160;2023-07-02T14:30:24;22.70;99.90
12771;DHT22;6449;47.666;9.160;2023-07-02T14:35:17;22.70;99.90
12771;DHT22;6449;47.666;9.160;2023-07-02T14:40:13;22.50;99.90
12771;DHT22;6449;47.666;9.160;2023-07-02T14:45:08;22.60;99.90
12771;DHT22;6449;47.666;9.160;2023-07-02T14:50:04;22.70;99.90
12771;DHT22;6449;47.666;9.160;2023-07-02T14:54:59;22.70;99.90
12771;DHT22;6449;47.666;9.160;2023-07-02T14:59:53;22.60;99.90
12771;DHT22;6449;47.666;9.160;2023-07-02T15:04:47;22.60;99.90
12771;DHT22;6449;47.666;9.160;2023-07-02T15:09:42;22.50;99.90
12771;DHT22;6449;47.666;9.160;2023-07-02T15:14:35;22.40;99.90
12771;DHT22;6449;47.666;9.160;2023-07-02T15:19:29;22.60;99.90
12771;DHT22;6449;47.666;9.160;2023-07-02T15:24:22;22.60;99.90
12771;DHT22;6449;47.666;9.160;2023-07-02T15:29:17;22.50;99.90
12771;DHT22;6449;47.666;9.160;2023-07-02T15:34:11;22.40;99.90
12771;DHT22;6449;47.666;9.160;2023-07-02T15:39:06;22.60;99.90
12771;DHT22;6449;47.666;9.160;2023-07-02T15:43:59;22.70;99.90
12771;DHT22;6449;47.666;9.160;2023-07-02T15:48:58;22.80;99.90
12771;DHT22;6449;47.666;9.160;2023-07-02T15:53:56;22.70;99.90
12771;DHT22;6449;47.666;9.160;2023-07-02T15:58:50;22.50;99.90
12771;DHT22;6449;47.666;9.160;2023-07-02T16:03:44;22.40;99.90
12771;DHT22;6449;47.666;9.160;2023-07-02T16:08:39;22.40;99.90
12771;DHT22;6449;47.666;9.160;2023-07-02T16:13:33;22.50;99.90
12771;DHT22;6449;47.666;9.160;2023-07-02T16:18:26;22.40;99.90
12771;DHT22;6449;47.666;9.160;2023-07-02T16:23:19;22.40;99.90
12771;DHT22;6449;47.666;9.160;2023-07-02T16:28:14;22.20;99.90
12771;DHT22;6449;47.666;9.160;2023-07-02T16:33:07;22.10;99.90
12771;DHT22;6449;47.666;9.160;2023-07-02T16:38:01;22.00;99.90
12771;DHT22;6449;47.666;9.160;2023-07-02T16:42:54;22.10;99.90
12771;DHT22;6449;47.666;9.160;2023-07-02T16:47:49;22.20;99.90
12771;DHT22;6449;47.666;9.160;2023-07-02T16:52:42;22.10;99.90
12771;DHT22;6449;47.666;9.160;2023-07-02T16:57:36;22.00;99.90
12771;DHT22;6449;47.666;9.160;2023-07-02T17:02:29;21.90;99.90
12771;DHT22;6449;47.666;9.160;2023-07-02T17:07:25;22.00;99.90
12771;DHT22;6449;47.666;9.160;2023-07-02T17:12:19;22.00;99.90
12771;DHT22;6449;47.666;9.160;2023-07-02T17:17:16;21.90;99.90
12771;DHT22;6449;47.666;9.160;2023-07-02T17:22:15;21.80;99.90
12771;DHT22;6449;47.666;9.160;2023-07-02T17:27:13;21.80;99.90
12771;DHT22;6449;47.666;9.160;2023-07-02T17:32:15;21.80;99.90
12771;DHT22;6449;47.666;9.160;2023-07-02T17:37:09;21.70;99.90
12771;DHT22;6449;47.666;9.160;2023-07-02T17:42:05;21.70;99.90
12771;DHT22;6449;47.666;9.160;2023-07-02T17:47:02;21.70;99.90
12771;DHT22;6449;47.666;9.160;2023-07-02T17:51:59;21.80;99.90
12771;DHT22;6449;47.666;9.160;2023-07-02T17:56:54;21.70;99.90
12771;DHT22;6449;47.666;9.160;2023-07-02T18:01:49;21.60;99.90
12771;DHT22;6449;47.666;9.160;2023-07-02T18:06:45;21.70;99.90
12771;DHT22;6449;47.666;9.160;2023-07-02T18:11:40;21.70;99.90
12771;DHT22;6449;47.666;9.160;2023-07-02T18:16:33;21.70;99.90
12771;DHT22;6449;47.666;9.160;2023-07-02T18:21:29;21.80;99.90
12771;DHT22;6449;47.666;9.160;2023-07-02T18:26:24;21.70;99.90
12771;DHT22;6449;47.666;9.160;2023-07-02T18:31:17;21.60;99.90
12771;DHT22;6449;47.666;9.160;2023-07-02T18:36:11;21.50;99.90
12771;DHT22;6449;47.666;9.160;2023-07-02T18:41:10;21.40;99.90
12771;DHT22;6449;47.666;9.160;2023-07-02T18:46:06;21.40;99.90
12771;DHT22;6449;47.666;9.160;2023-07-02T18:51:03;21.40;99.90
12771;DHT22;6449;47.666;9.160;2023-07-02T18:55:59;21.30;99.90
12771;DHT22;6449;47.666;9.160;2023-07-02T19:00:53;21.20;99.90
12771;DHT22;6449;47.666;9.160;2023-07-02T19:05:49;21.20;99.90
12771;DHT22;6449;47.666;9.160;2023-07-02T19:10:46;21.00;99.90
12771;DHT22;6449;47.666;9.160;2023-07-02T19:15:39;21.00;99.90
12771;DHT22;6449;47.666;9.160;2023-07-02T19:20:34;21.00;99.90
12771;DHT22;6449;47.666;9.160;2023-07-02T19:25:29;20.90;99.90
12771;DHT22;6449;47.666;9.160;2023-07-02T19:30:28;20.70;99.90
12771;DHT22;6449;47.666;9.160;2023-07-02T19:35:21;20.70;99.90
12771;DHT22;6449;47.666;9.160;2023-07-02T19:40:16;20.70;99.90
12771;DHT22;6449;47.666;9.160;2023-07-02T19:45:11;20.70;99.90
12771;DHT22;6449;47.666;9.160;2023-07-02T19:50:09;20.60;99.90
12771;DHT22;6449;47.666;9.160;2023-07-02T19:55:07;20.60;99.90
12771;DHT22;6449;47.666;9.160;2023-07-02T20:00:12;20.40;99.90
12771;DHT22;6449;47.666;9.160;2023-07-02T20:05:06;20.30;99.90
12771;DHT22;6449;47.666;9.160;2023-07-02T20:10:05;20.20;99.90
12771;DHT22;6449;47.666;9.160;2023-07-02T20:15:01;20.00;99.90
12771;DHT22;6449;47.666;9.160;2023-07-02T20:19:59;19.80;99.90
12771;DHT22;6449;47.666;9.160;2023-07-02T20:24:54;19.80;99.90
12771;DHT22;6449;47.666;9.160;2023-07-02T20:30:11;19.70;99.90
12771;DHT22;6449;47.666;9.160;2023-07-02T20:35:07;19.60;99.90
12771;DHT22;6449;47.666;9.160;2023-07-02T20:40:08;19.50;99.90
12771;DHT22;6449;47.666;9.160;2023-07-02T20:45:07;19.50;99.90
12771;DHT22;6449;47.666;9.160;2023-07-02T20:50:08;19.50;99.90
12771;DHT22;6449;47.666;9.160;2023-07-02T20:55:06;19.60;99.90
12771;DHT22;6449;47.666;9.160;2023-07-02T21:00:10;19.60;99.90
12771;DHT22;6449;47.666;9.160;2023-07-02T21:05:04;19.60;99.90
12771;DHT22;6449;47.666;9.160;2023-07-02T21:10:02;19.70;99.90
12771;DHT22;6449;47.666;9.160;2023-07-02T21:15:02;19.70;99.90
12771;DHT22;6449;47.666;9.160;2023-07-02T21:20:09;19.50;99.90
12771;DHT22;6449;47.666;9.160;2023-07-02T21:25:08;19.40;99.90
12771;DHT22;6449;47.666;9.160;2023-07-02T21:30:04;19.30;99.90
12771;DHT22;6449;47.666;9.160;2023-07-02T21:34:59;19.30;99.90
12771;DHT22;6449;47.666;9.160;2023-07-02T21:39:53;19.20;99.90
12771;DHT22;6449;47.666;9.160;2023-07-02T21:44:48;19.10;99.90
12771;DHT22;6449;47.666;9.160;2023-07-02T21:49:42;19.10;99.90
12771;DHT22;6449;47.666;9.160;2023-07-02T21:54:35;19.10;99.90
12771;DHT22;6449;47.666;9.160;2023-07-02T21:59:29;19.00;99.90
12771;DHT22;6449;47.666;9.160;2023-07-02T22:04:24;19.00;99.90
12771;DHT22;6449;47.666;9.160;2023-07-02T22:09:17;18.90;99.90
12771;DHT22;6449;47.666;9.160;2023-07-02T22:14:11;18.80;99.90
12771;DHT22;6449;47.666;9.160;2023-07-02T22:19:04;18.60;99.90
12771;DHT22;6449;47.666;9.160;2023-07-02T22:24:00;18.50;99.90
12771;DHT22;6449;47.666;9.160;2023-07-02T22:28:53;18.40;99.90
12771;DHT22;6449;47.666;9.160;2023-07-02T22:33:47;18.40;99.90
12771;DHT22;6449;47.666;9.160;2023-07-02T22:38:40;18.40;99.90
12771;DHT22;6449;47.666;9.160;2023-07-02T22:43:35;18.50;99.90
12771;DHT22;6449;47.666;9.160;2023-07-02T22:48:28;18.60;99.90
12771;DHT22;6449;47.666;9.160;2023-07-02T22:53:22;18.60;99.90
12771;DHT22;6449;47.666;9.160;2023-07-02T22:58:15;18.60;99.90
12771;DHT22;6449;47.666;9.160;2023-07-02T23:03:09;18.60;99.90
12771;DHT22;6449;47.666;9.160;2023-07-02T23:08:05;18.60;99.90
12771;DHT22;6449;47.666;9.160;2023-07-02T23:12:58;18.70;99.90
12771;DHT22;6449;47.666;9.160;2023-07-02T23:17:52;18.70;99.90
12771;DHT22;6449;47.666;9.160;2023-07-02T23:22:48;18.70;99.90
12771;DHT22;6449;47.666;9.160;2023-07-02T23:27:42;18.70;99.90
12771;DHT22;6449;47.666;9.160;2023-07-02T23:32:38;18.70;99.90
12771;DHT22;6449;47.666;9.160;2023-07-02T23:37:32;18.70;99.90
12771;DHT22;6449;47.666;9.160;2023-07-02T23:42:29;18.80;99.90
12771;DHT22;6449;47.666;9.160;2023-07-02T23:47:23;18.80;99.90
12771;DHT22;6449;47.666;9.160;2023-07-02T23:52:16;18.80;99.90
12771;DHT22;6449;47.666;9.160;2023-07-02T23:57:09;18.80;99.90
